sensor_id;sensor_type;location;lat;lon;timestamp;P1;durP1;ratioP1;P2;durP2;ratioP2
25917;SDS011;13899;51.174;4.456;2023-02-04T00:01:30;22.33;;;12.00;;
25917;SDS011;13899;51.174;4.456;2023-02-04T00:03:55;15.13;;;12.17;;
25917;SDS011;13899;51.174;4.456;2023-02-04T00:06:21;16.73;;;12.98;;
25917;SDS011;13899;51.174;4.456;2023-02-04T00:08:46;16.15;;;14.40;;
25917;SDS011;13899;51.174;4.456;2023-02-04T00:11:12;21.23;;;13.70;;
25917;SDS011;13899;51.174;4.456;2023-02-04T00:13:38;25.10;;;15.52;;
25917;SDS011;13899;51.174;4.456;2023-02-04T00:16:03;33.97;;;17.00;;
25917;SDS011;13899;51.174;4.456;2023-02-04T00:18:29;18.50;;;16.55;;
25917;SDS011;13899;51.174;4.456;2023-02-04T00:20:57;22.95;;;16.05;;
25917;SDS011;13899;51.174;4.456;2023-02-04T00:23:22;26.17;;;17.17;;
25917;SDS011;13899;51.174;4.456;2023-02-04T00:25:48;26.00;;;18.02;;
25917;SDS011;13899;51.174;4.456;2023-02-04T00:28:13;23.48;;;17.45;;
25917;SDS011;13899;51.174;4.456;2023-02-04T00:30:39;29.57;;;19.57;;
25917;SDS011;13899;51.174;4.456;2023-02-04T00:33:05;32.43;;;21.00;;
25917;SDS011;13899;51.174;4.456;2023-02-04T00:35:30;33.28;;;20.65;;
25917;SDS011;13899;51.174;4.456;2023-02-04T00:37:56;33.65;;;19.98;;
25917;SDS011;13899;51.174;4.456;2023-02-04T00:40:21;33.90;;;20.17;;
25917;SDS011;13899;51.174;4.456;2023-02-04T00:42:47;37.47;;;24.38;;
25917;SDS011;13899;51.174;4.456;2023-02-04T00:45:12;45.50;;;23.83;;
25917;SDS011;13899;51.174;4.456;2023-02-04T00:47:38;47.50;;;24.57;;
25917;SDS011;13899;51.174;4.456;2023-02-04T00:50:04;51.17;;;25.65;;
25917;SDS011;13899;51.174;4.456;2023-02-04T00:52:30;38.75;;;23.58;;
25917;SDS011;13899;51.174;4.456;2023-02-04T00:54:55;40.50;;;22.80;;
25917;SDS011;13899;51.174;4.456;2023-02-04T00:57:21;41.05;;;22.00;;
25917;SDS011;13899;51.174;4.456;2023-02-04T00:59:47;35.33;;;23.02;;
25917;SDS011;13899;51.174;4.456;2023-02-04T01:02:12;35.35;;;22.23;;
25917;SDS011;13899;51.174;4.456;2023-02-04T01:04:38;44.22;;;23.23;;
25917;SDS011;13899;51.174;4.456;2023-02-04T01:07:03;29.67;;;19.83;;
25917;SDS011;13899;51.174;4.456;2023-02-04T01:09:29;34.20;;;19.60;;
25917;SDS011;13899;51.174;4.456;2023-02-04T01:11:55;26.50;;;18.80;;
25917;SDS011;13899;51.174;4.456;2023-02-04T01:14:21;32.78;;;20.45;;
25917;SDS011;13899;51.174;4.456;2023-02-04T01:16:46;33.28;;;21.23;;
25917;SDS011;13899;51.174;4.456;2023-02-04T01:19:12;40.17;;;22.35;;
25917;SDS011;13899;51.174;4.456;2023-02-04T01:21:37;29.73;;;21.10;;
25917;SDS011;13899;51.174;4.456;2023-02-04T01:24:03;26.87;;;20.27;;
25917;SDS011;13899;51.174;4.456;2023-02-04T01:26:29;37.63;;;21.35;;
25917;SDS011;13899;51.174;4.456;2023-02-04T01:28:55;21.73;;;18.50;;
25917;SDS011;13899;51.174;4.456;2023-02-04T01:31:20;27.75;;;18.65;;
25917;SDS011;13899;51.174;4.456;2023-02-04T01:33:46;27.30;;;20.60;;
25917;SDS011;13899;51.174;4.456;2023-02-04T01:36:12;27.83;;;18.83;;
25917;SDS011;13899;51.174;4.456;2023-02-04T01:38:38;32.65;;;20.52;;
25917;SDS011;13899;51.174;4.456;2023-02-04T01:41:03;30.38;;;19.90;;
25917;SDS011;13899;51.174;4.456;2023-02-04T01:43:30;25.02;;;18.80;;
25917;SDS011;13899;51.174;4.456;2023-02-04T01:45:56;35.03;;;19.05;;
25917;SDS011;13899;51.174;4.456;2023-02-04T01:48:22;27.30;;;17.27;;
25917;SDS011;13899;51.174;4.456;2023-02-04T01:50:50;26.55;;;16.38;;
25917;SDS011;13899;51.174;4.456;2023-02-04T01:53:21;21.88;;;15.90;;
25917;SDS011;13899;51.174;4.456;2023-02-04T01:55:49;25.50;;;16.65;;
25917;SDS011;13899;51.174;4.456;2023-02-04T01:58:16;26.02;;;19.35;;
25917;SDS011;13899;51.174;4.456;2023-02-04T02:00:42;22.35;;;17.85;;
25917;SDS011;13899;51.174;4.456;2023-02-04T02:03:08;33.85;;;19.65;;
25917;SDS011;13899;51.174;4.456;2023-02-04T02:05:39;38.88;;;21.05;;
25917;SDS011;13899;51.174;4.456;2023-02-04T02:08:08;35.58;;;21.15;;
25917;SDS011;13899;51.174;4.456;2023-02-04T02:10:34;39.55;;;21.15;;
25917;SDS011;13899;51.174;4.456;2023-02-04T02:13:02;41.80;;;22.50;;
25917;SDS011;13899;51.174;4.456;2023-02-04T02:15:29;35.67;;;21.75;;
25917;SDS011;13899;51.174;4.456;2023-02-04T02:17:55;40.03;;;22.50;;
25917;SDS011;13899;51.174;4.456;2023-02-04T02:20:22;41.30;;;22.85;;
25917;SDS011;13899;51.174;4.456;2023-02-04T02:22:51;35.45;;;21.52;;
25917;SDS011;13899;51.174;4.456;2023-02-04T02:25:27;35.75;;;22.98;;
25917;SDS011;13899;51.174;4.456;2023-02-04T02:27:53;38.83;;;21.02;;
25917;SDS011;13899;51.174;4.456;2023-02-04T02:30:22;33.13;;;20.73;;
25917;SDS011;13899;51.174;4.456;2023-02-04T02:32:48;33.03;;;20.37;;
25917;SDS011;13899;51.174;4.456;2023-02-04T02:35:15;33.85;;;20.98;;
25917;SDS011;13899;51.174;4.456;2023-02-04T02:37:41;31.33;;;19.00;;
25917;SDS011;13899;51.174;4.456;2023-02-04T02:40:08;34.77;;;20.53;;
25917;SDS011;13899;51.174;4.456;2023-02-04T02:42:34;34.70;;;20.73;;
25917;SDS011;13899;51.174;4.456;2023-02-04T02:45:02;34.90;;;20.00;;
25917;SDS011;13899;51.174;4.456;2023-02-04T02:47:35;28.52;;;19.92;;
25917;SDS011;13899;51.174;4.456;2023-02-04T02:50:00;31.08;;;19.38;;
25917;SDS011;13899;51.174;4.456;2023-02-04T02:52:26;29.93;;;19.70;;
25917;SDS011;13899;51.174;4.456;2023-02-04T02:54:52;23.03;;;17.73;;
25917;SDS011;13899;51.174;4.456;2023-02-04T02:57:19;28.40;;;18.52;;
25917;SDS011;13899;51.174;4.456;2023-02-04T02:59:45;32.70;;;20.13;;
25917;SDS011;13899;51.174;4.456;2023-02-04T03:02:13;29.93;;;21.10;;
25917;SDS011;13899;51.174;4.456;2023-02-04T03:04:44;31.50;;;20.88;;
25917;SDS011;13899;51.174;4.456;2023-02-04T03:07:14;32.13;;;19.65;;
25917;SDS011;13899;51.174;4.456;2023-02-04T03:09:42;29.63;;;19.58;;
25917;SDS011;13899;51.174;4.456;2023-02-04T03:12:09;31.33;;;20.15;;
25917;SDS011;13899;51.174;4.456;2023-02-04T03:14:35;34.03;;;20.63;;
25917;SDS011;13899;51.174;4.456;2023-02-04T03:17:02;28.40;;;18.50;;
25917;SDS011;13899;51.174;4.456;2023-02-04T03:19:29;25.88;;;19.38;;
25917;SDS011;13899;51.174;4.456;2023-02-04T03:22:00;32.08;;;21.88;;
25917;SDS011;13899;51.174;4.456;2023-02-04T03:24:26;32.67;;;20.70;;
25917;SDS011;13899;51.174;4.456;2023-02-04T03:26:52;35.60;;;21.20;;
25917;SDS011;13899;51.174;4.456;2023-02-04T03:29:19;36.03;;;21.48;;
25917;SDS011;13899;51.174;4.456;2023-02-04T03:31:45;40.33;;;22.50;;
25917;SDS011;13899;51.174;4.456;2023-02-04T03:34:11;35.17;;;22.00;;
25917;SDS011;13899;51.174;4.456;2023-02-04T03:36:36;30.33;;;20.05;;
25917;SDS011;13899;51.174;4.456;2023-02-04T03:39:02;31.15;;;20.85;;
25917;SDS011;13899;51.174;4.456;2023-02-04T03:41:28;34.83;;;21.27;;
25917;SDS011;13899;51.174;4.456;2023-02-04T03:43:56;43.50;;;23.20;;
25917;SDS011;13899;51.174;4.456;2023-02-04T03:46:22;39.13;;;23.53;;
25917;SDS011;13899;51.174;4.456;2023-02-04T03:48:48;41.53;;;23.95;;
25917;SDS011;13899;51.174;4.456;2023-02-04T03:51:14;36.10;;;22.47;;
25917;SDS011;13899;51.174;4.456;2023-02-04T03:53:39;51.65;;;24.85;;
25917;SDS011;13899;51.174;4.456;2023-02-04T03:56:05;42.50;;;24.33;;
25917;SDS011;13899;51.174;4.456;2023-02-04T03:58:31;41.35;;;24.85;;
25917;SDS011;13899;51.174;4.456;2023-02-04T04:00:57;42.83;;;23.70;;
25917;SDS011;13899;51.174;4.456;2023-02-04T04:03:22;44.72;;;23.95;;
25917;SDS011;13899;51.174;4.456;2023-02-04T04:05:48;39.92;;;21.63;;
25917;SDS011;13899;51.174;4.456;2023-02-04T04:08:13;50.17;;;23.70;;
25917;SDS011;13899;51.174;4.456;2023-02-04T04:10:39;35.88;;;21.63;;
25917;SDS011;13899;51.174;4.456;2023-02-04T04:13:05;37.60;;;23.17;;
25917;SDS011;13899;51.174;4.456;2023-02-04T04:15:30;42.77;;;23.20;;
25917;SDS011;13899;51.174;4.456;2023-02-04T04:17:56;40.63;;;22.42;;
25917;SDS011;13899;51.174;4.456;2023-02-04T04:20:21;40.10;;;22.25;;
25917;SDS011;13899;51.174;4.456;2023-02-04T04:22:51;45.78;;;23.75;;
25917;SDS011;13899;51.174;4.456;2023-02-04T04:25:17;40.05;;;23.63;;
25917;SDS011;13899;51.174;4.456;2023-02-04T04:27:42;37.42;;;21.33;;
25917;SDS011;13899;51.174;4.456;2023-02-04T04:30:08;49.30;;;24.33;;
25917;SDS011;13899;51.174;4.456;2023-02-04T04:32:35;46.17;;;23.15;;
25917;SDS011;13899;51.174;4.456;2023-02-04T04:35:00;43.38;;;24.25;;
25917;SDS011;13899;51.174;4.456;2023-02-04T04:37:26;38.67;;;22.17;;
25917;SDS011;13899;51.174;4.456;2023-02-04T04:39:51;48.50;;;23.80;;
25917;SDS011;13899;51.174;4.456;2023-02-04T04:42:20;41.67;;;22.70;;
25917;SDS011;13899;51.174;4.456;2023-02-04T04:44:45;45.45;;;22.38;;
25917;SDS011;13899;51.174;4.456;2023-02-04T04:47:11;46.35;;;23.67;;
25917;SDS011;13899;51.174;4.456;2023-02-04T04:49:38;39.47;;;20.27;;
25917;SDS011;13899;51.174;4.456;2023-02-04T04:52:03;53.53;;;24.23;;
25917;SDS011;13899;51.174;4.456;2023-02-04T04:54:29;47.72;;;21.48;;
25917;SDS011;13899;51.174;4.456;2023-02-04T04:56:54;44.97;;;23.25;;
25917;SDS011;13899;51.174;4.456;2023-02-04T04:59:20;49.08;;;24.45;;
25917;SDS011;13899;51.174;4.456;2023-02-04T05:01:45;48.13;;;23.02;;
25917;SDS011;13899;51.174;4.456;2023-02-04T05:04:11;51.20;;;22.03;;
25917;SDS011;13899;51.174;4.456;2023-02-04T05:06:37;50.90;;;23.17;;
25917;SDS011;13899;51.174;4.456;2023-02-04T05:09:02;50.30;;;24.60;;
25917;SDS011;13899;51.174;4.456;2023-02-04T05:11:28;52.30;;;23.85;;
25917;SDS011;13899;51.174;4.456;2023-02-04T05:13:56;51.42;;;22.50;;
25917;SDS011;13899;51.174;4.456;2023-02-04T05:16:21;43.40;;;24.05;;
25917;SDS011;13899;51.174;4.456;2023-02-04T05:18:49;47.75;;;23.90;;
25917;SDS011;13899;51.174;4.456;2023-02-04T05:21:14;54.45;;;25.38;;
25917;SDS011;13899;51.174;4.456;2023-02-04T05:23:40;49.03;;;23.77;;
25917;SDS011;13899;51.174;4.456;2023-02-04T05:26:06;59.10;;;24.30;;
25917;SDS011;13899;51.174;4.456;2023-02-04T05:28:31;52.60;;;24.48;;
25917;SDS011;13899;51.174;4.456;2023-02-04T05:30:57;42.35;;;24.50;;
25917;SDS011;13899;51.174;4.456;2023-02-04T05:33:22;45.75;;;23.83;;
25917;SDS011;13899;51.174;4.456;2023-02-04T05:35:48;53.60;;;25.50;;
25917;SDS011;13899;51.174;4.456;2023-02-04T05:38:13;54.53;;;26.20;;
25917;SDS011;13899;51.174;4.456;2023-02-04T05:40:39;56.67;;;25.58;;
25917;SDS011;13899;51.174;4.456;2023-02-04T05:43:04;49.25;;;24.15;;
25917;SDS011;13899;51.174;4.456;2023-02-04T05:45:30;51.10;;;25.77;;
25917;SDS011;13899;51.174;4.456;2023-02-04T05:47:56;44.40;;;24.88;;
25917;SDS011;13899;51.174;4.456;2023-02-04T05:50:21;53.63;;;27.25;;
25917;SDS011;13899;51.174;4.456;2023-02-04T05:52:47;48.65;;;24.65;;
25917;SDS011;13899;51.174;4.456;2023-02-04T05:55:12;50.90;;;25.80;;
25917;SDS011;13899;51.174;4.456;2023-02-04T05:57:38;53.67;;;26.75;;
25917;SDS011;13899;51.174;4.456;2023-02-04T06:00:04;48.25;;;26.20;;
25917;SDS011;13899;51.174;4.456;2023-02-04T06:02:31;54.22;;;26.05;;
25917;SDS011;13899;51.174;4.456;2023-02-04T06:04:57;45.27;;;23.97;;
25917;SDS011;13899;51.174;4.456;2023-02-04T06:07:22;49.38;;;22.90;;
25917;SDS011;13899;51.174;4.456;2023-02-04T06:09:48;48.83;;;25.35;;
25917;SDS011;13899;51.174;4.456;2023-02-04T06:12:14;47.88;;;24.58;;
25917;SDS011;13899;51.174;4.456;2023-02-04T06:14:39;49.75;;;26.45;;
25917;SDS011;13899;51.174;4.456;2023-02-04T06:17:05;51.35;;;26.25;;
25917;SDS011;13899;51.174;4.456;2023-02-04T06:19:30;49.30;;;25.23;;
25917;SDS011;13899;51.174;4.456;2023-02-04T06:21:56;55.50;;;27.07;;
25917;SDS011;13899;51.174;4.456;2023-02-04T06:24:22;59.47;;;27.67;;
25917;SDS011;13899;51.174;4.456;2023-02-04T06:26:47;64.73;;;27.50;;
25917;SDS011;13899;51.174;4.456;2023-02-04T06:29:13;69.38;;;29.63;;
25917;SDS011;13899;51.174;4.456;2023-02-04T06:31:38;72.63;;;30.70;;
25917;SDS011;13899;51.174;4.456;2023-02-04T06:34:04;73.28;;;29.75;;
25917;SDS011;13899;51.174;4.456;2023-02-04T06:36:30;58.55;;;26.33;;
25917;SDS011;13899;51.174;4.456;2023-02-04T06:38:56;74.53;;;29.67;;
25917;SDS011;13899;51.174;4.456;2023-02-04T06:41:22;84.22;;;36.00;;
25917;SDS011;13899;51.174;4.456;2023-02-04T06:43:47;65.07;;;28.25;;
25917;SDS011;13899;51.174;4.456;2023-02-04T06:46:13;78.00;;;33.50;;
25917;SDS011;13899;51.174;4.456;2023-02-04T06:48:41;87.32;;;37.75;;
25917;SDS011;13899;51.174;4.456;2023-02-04T06:51:07;117.10;;;53.60;;
25917;SDS011;13899;51.174;4.456;2023-02-04T06:53:32;83.85;;;37.97;;
25917;SDS011;13899;51.174;4.456;2023-02-04T06:55:58;78.60;;;35.70;;
25917;SDS011;13899;51.174;4.456;2023-02-04T06:58:23;89.80;;;43.38;;
25917;SDS011;13899;51.174;4.456;2023-02-04T07:00:49;70.15;;;34.53;;
25917;SDS011;13899;51.174;4.456;2023-02-04T07:03:14;53.90;;;28.88;;
25917;SDS011;13899;51.174;4.456;2023-02-04T07:05:40;46.47;;;26.02;;
25917;SDS011;13899;51.174;4.456;2023-02-04T07:08:05;48.17;;;26.00;;
25917;SDS011;13899;51.174;4.456;2023-02-04T07:10:31;50.50;;;25.95;;
25917;SDS011;13899;51.174;4.456;2023-02-04T07:12:57;45.08;;;22.38;;
25917;SDS011;13899;51.174;4.456;2023-02-04T07:15:22;45.05;;;23.67;;
25917;SDS011;13899;51.174;4.456;2023-02-04T07:17:48;43.20;;;23.58;;
25917;SDS011;13899;51.174;4.456;2023-02-04T07:20:14;49.85;;;23.00;;
25917;SDS011;13899;51.174;4.456;2023-02-04T07:22:40;44.13;;;24.43;;
25917;SDS011;13899;51.174;4.456;2023-02-04T07:25:08;47.30;;;24.70;;
25917;SDS011;13899;51.174;4.456;2023-02-04T07:27:35;49.78;;;24.13;;
25917;SDS011;13899;51.174;4.456;2023-02-04T07:30:01;51.30;;;25.70;;
25917;SDS011;13899;51.174;4.456;2023-02-04T07:32:26;49.15;;;25.95;;
25917;SDS011;13899;51.174;4.456;2023-02-04T07:34:56;51.33;;;26.23;;
25917;SDS011;13899;51.174;4.456;2023-02-04T07:37:22;54.67;;;26.90;;
25917;SDS011;13899;51.174;4.456;2023-02-04T07:39:47;55.10;;;27.25;;
25917;SDS011;13899;51.174;4.456;2023-02-04T07:42:13;58.57;;;27.13;;
25917;SDS011;13899;51.174;4.456;2023-02-04T07:44:41;53.67;;;27.25;;
25917;SDS011;13899;51.174;4.456;2023-02-04T07:47:06;54.58;;;27.60;;
25917;SDS011;13899;51.174;4.456;2023-02-04T07:49:34;58.13;;;30.10;;
25917;SDS011;13899;51.174;4.456;2023-02-04T07:52:02;61.35;;;29.05;;
25917;SDS011;13899;51.174;4.456;2023-02-04T07:54:28;56.08;;;28.65;;
25917;SDS011;13899;51.174;4.456;2023-02-04T07:56:53;66.27;;;30.53;;
25917;SDS011;13899;51.174;4.456;2023-02-04T07:59:19;64.30;;;30.47;;
25917;SDS011;13899;51.174;4.456;2023-02-04T08:01:46;74.97;;;31.98;;
25917;SDS011;13899;51.174;4.456;2023-02-04T08:04:13;79.43;;;33.63;;
25917;SDS011;13899;51.174;4.456;2023-02-04T08:06:39;89.95;;;34.88;;
25917;SDS011;13899;51.174;4.456;2023-02-04T08:09:04;73.70;;;31.77;;
25917;SDS011;13899;51.174;4.456;2023-02-04T08:11:30;79.95;;;34.15;;
25917;SDS011;13899;51.174;4.456;2023-02-04T08:13:55;85.20;;;33.05;;
25917;SDS011;13899;51.174;4.456;2023-02-04T08:16:21;72.15;;;29.70;;
25917;SDS011;13899;51.174;4.456;2023-02-04T08:18:49;64.60;;;28.70;;
25917;SDS011;13899;51.174;4.456;2023-02-04T08:21:14;66.45;;;28.83;;
25917;SDS011;13899;51.174;4.456;2023-02-04T08:23:40;71.43;;;29.33;;
25917;SDS011;13899;51.174;4.456;2023-02-04T08:26:07;57.05;;;26.50;;
25917;SDS011;13899;51.174;4.456;2023-02-04T08:28:34;52.35;;;26.70;;
25917;SDS011;13899;51.174;4.456;2023-02-04T08:31:03;64.30;;;28.40;;
25917;SDS011;13899;51.174;4.456;2023-02-04T08:33:29;62.35;;;26.67;;
25917;SDS011;13899;51.174;4.456;2023-02-04T08:35:55;61.65;;;26.70;;
25917;SDS011;13899;51.174;4.456;2023-02-04T08:38:20;68.88;;;29.52;;
25917;SDS011;13899;51.174;4.456;2023-02-04T08:40:46;62.20;;;27.37;;
25917;SDS011;13899;51.174;4.456;2023-02-04T08:43:12;63.97;;;27.57;;
25917;SDS011;13899;51.174;4.456;2023-02-04T08:45:37;75.45;;;29.40;;
25917;SDS011;13899;51.174;4.456;2023-02-04T08:48:03;74.23;;;28.93;;
25917;SDS011;13899;51.174;4.456;2023-02-04T08:50:31;64.63;;;29.20;;
25917;SDS011;13899;51.174;4.456;2023-02-04T08:52:57;64.85;;;28.88;;
25917;SDS011;13899;51.174;4.456;2023-02-04T08:55:22;62.63;;;26.48;;
25917;SDS011;13899;51.174;4.456;2023-02-04T08:57:48;51.00;;;24.17;;
25917;SDS011;13899;51.174;4.456;2023-02-04T09:00:14;51.80;;;25.30;;
25917;SDS011;13899;51.174;4.456;2023-02-04T09:02:39;49.53;;;24.00;;
25917;SDS011;13899;51.174;4.456;2023-02-04T09:05:05;40.90;;;22.23;;
25917;SDS011;13899;51.174;4.456;2023-02-04T09:09:57;49.83;;;23.52;;
25917;SDS011;13899;51.174;4.456;2023-02-04T09:12:22;44.20;;;23.08;;
25917;SDS011;13899;51.174;4.456;2023-02-04T09:14:48;46.65;;;24.17;;
25917;SDS011;13899;51.174;4.456;2023-02-04T09:17:13;43.43;;;21.00;;
25917;SDS011;13899;51.174;4.456;2023-02-04T09:19:39;33.30;;;20.45;;
25917;SDS011;13899;51.174;4.456;2023-02-04T09:22:04;35.80;;;20.10;;
25917;SDS011;13899;51.174;4.456;2023-02-04T09:24:30;35.70;;;19.77;;
25917;SDS011;13899;51.174;4.456;2023-02-04T09:26:56;34.27;;;19.70;;
25917;SDS011;13899;51.174;4.456;2023-02-04T09:29:23;36.70;;;20.45;;
25917;SDS011;13899;51.174;4.456;2023-02-04T09:31:49;42.87;;;22.17;;
25917;SDS011;13899;51.174;4.456;2023-02-04T09:34:15;43.93;;;21.90;;
25917;SDS011;13899;51.174;4.456;2023-02-04T09:36:40;50.05;;;23.80;;
25917;SDS011;13899;51.174;4.456;2023-02-04T09:39:06;45.90;;;22.00;;
25917;SDS011;13899;51.174;4.456;2023-02-04T09:41:34;54.13;;;24.02;;
25917;SDS011;13899;51.174;4.456;2023-02-04T09:44:03;39.75;;;20.88;;
25917;SDS011;13899;51.174;4.456;2023-02-04T09:46:29;39.92;;;19.98;;
25917;SDS011;13899;51.174;4.456;2023-02-04T09:48:57;35.67;;;18.65;;
25917;SDS011;13899;51.174;4.456;2023-02-04T09:51:27;26.20;;;15.98;;
25917;SDS011;13899;51.174;4.456;2023-02-04T09:54:05;25.48;;;16.83;;
25917;SDS011;13899;51.174;4.456;2023-02-04T09:56:33;26.17;;;17.15;;
25917;SDS011;13899;51.174;4.456;2023-02-04T09:58:59;31.25;;;18.85;;
25917;SDS011;13899;51.174;4.456;2023-02-04T10:01:25;29.15;;;18.00;;
25917;SDS011;13899;51.174;4.456;2023-02-04T10:03:52;37.53;;;18.80;;
25917;SDS011;13899;51.174;4.456;2023-02-04T10:06:22;31.08;;;18.23;;
25917;SDS011;13899;51.174;4.456;2023-02-04T10:08:48;35.45;;;20.02;;
25917;SDS011;13899;51.174;4.456;2023-02-04T10:11:16;29.27;;;16.85;;
25917;SDS011;13899;51.174;4.456;2023-02-04T10:13:44;28.85;;;17.83;;
25917;SDS011;13899;51.174;4.456;2023-02-04T10:16:25;34.40;;;19.65;;
25917;SDS011;13899;51.174;4.456;2023-02-04T10:18:59;34.00;;;17.83;;
25917;SDS011;13899;51.174;4.456;2023-02-04T10:21:28;32.88;;;18.40;;
25917;SDS011;13899;51.174;4.456;2023-02-04T10:23:59;32.03;;;17.75;;
25917;SDS011;13899;51.174;4.456;2023-02-04T10:26:27;28.98;;;17.33;;
25917;SDS011;13899;51.174;4.456;2023-02-04T10:29:00;27.92;;;17.40;;
25917;SDS011;13899;51.174;4.456;2023-02-04T10:34:03;26.88;;;17.38;;
25917;SDS011;13899;51.174;4.456;2023-02-04T10:36:30;24.15;;;15.13;;
25917;SDS011;13899;51.174;4.456;2023-02-04T10:39:03;20.60;;;14.03;;
25917;SDS011;13899;51.174;4.456;2023-02-04T10:41:35;21.33;;;14.50;;
25917;SDS011;13899;51.174;4.456;2023-02-04T10:44:08;23.17;;;14.52;;
25917;SDS011;13899;51.174;4.456;2023-02-04T10:46:36;19.65;;;14.75;;
25917;SDS011;13899;51.174;4.456;2023-02-04T10:49:15;14.53;;;11.07;;
25917;SDS011;13899;51.174;4.456;2023-02-04T10:51:46;18.85;;;12.80;;
25917;SDS011;13899;51.174;4.456;2023-02-04T10:56:54;15.70;;;12.23;;
25917;SDS011;13899;51.174;4.456;2023-02-04T10:59:43;20.75;;;12.85;;
25917;SDS011;13899;51.174;4.456;2023-02-04T11:02:31;15.80;;;11.50;;
25917;SDS011;13899;51.174;4.456;2023-02-04T11:05:05;16.38;;;12.32;;
25917;SDS011;13899;51.174;4.456;2023-02-04T11:07:37;13.30;;;10.50;;
25917;SDS011;13899;51.174;4.456;2023-02-04T11:10:03;12.45;;;11.25;;
25917;SDS011;13899;51.174;4.456;2023-02-04T11:15:04;12.52;;;11.25;;
25917;SDS011;13899;51.174;4.456;2023-02-04T11:17:31;12.75;;;11.50;;
25917;SDS011;13899;51.174;4.456;2023-02-04T11:19:58;12.57;;;11.02;;
25917;SDS011;13899;51.174;4.456;2023-02-04T11:22:41;15.90;;;12.80;;
25917;SDS011;13899;51.174;4.456;2023-02-04T11:27:57;23.98;;;17.42;;
25917;SDS011;13899;51.174;4.456;2023-02-04T11:30:29;23.63;;;17.33;;
25917;SDS011;13899;51.174;4.456;2023-02-04T11:33:01;25.00;;;17.52;;
25917;SDS011;13899;51.174;4.456;2023-02-04T11:35:28;18.63;;;15.50;;
25917;SDS011;13899;51.174;4.456;2023-02-04T11:37:55;20.63;;;16.58;;
25917;SDS011;13899;51.174;4.456;2023-02-04T11:40:26;16.17;;;14.18;;
25917;SDS011;13899;51.174;4.456;2023-02-04T11:43:00;15.10;;;12.43;;
25917;SDS011;13899;51.174;4.456;2023-02-04T11:45:37;14.70;;;13.20;;
25917;SDS011;13899;51.174;4.456;2023-02-04T11:48:11;14.00;;;10.70;;
25917;SDS011;13899;51.174;4.456;2023-02-04T11:53:41;7.55;;;6.57;;
25917;SDS011;13899;51.174;4.456;2023-02-04T11:56:14;7.93;;;7.22;;
25917;SDS011;13899;51.174;4.456;2023-02-04T11:58:47;4.18;;;3.78;;
25917;SDS011;13899;51.174;4.456;2023-02-04T12:01:17;4.00;;;3.63;;
25917;SDS011;13899;51.174;4.456;2023-02-04T12:03:45;3.40;;;3.10;;
25917;SDS011;13899;51.174;4.456;2023-02-04T12:06:24;3.90;;;3.50;;
25917;SDS011;13899;51.174;4.456;2023-02-04T12:11:32;4.20;;;3.20;;
25917;SDS011;13899;51.174;4.456;2023-02-04T12:14:05;3.10;;;2.72;;
25917;SDS011;13899;51.174;4.456;2023-02-04T12:16:45;3.53;;;3.05;;
25917;SDS011;13899;51.174;4.456;2023-02-04T12:19:13;3.63;;;3.33;;
25917;SDS011;13899;51.174;4.456;2023-02-04T12:22:12;4.97;;;3.85;;
25917;SDS011;13899;51.174;4.456;2023-02-04T12:24:39;4.82;;;4.32;;
25917;SDS011;13899;51.174;4.456;2023-02-04T12:27:05;4.65;;;4.25;;
25917;SDS011;13899;51.174;4.456;2023-02-04T12:29:32;4.30;;;3.90;;
25917;SDS011;13899;51.174;4.456;2023-02-04T12:32:10;4.80;;;4.32;;
25917;SDS011;13899;51.174;4.456;2023-02-04T12:35:41;5.43;;;4.93;;
25917;SDS011;13899;51.174;4.456;2023-02-04T12:38:12;6.10;;;5.50;;
25917;SDS011;13899;51.174;4.456;2023-02-04T12:40:39;7.10;;;6.32;;
25917;SDS011;13899;51.174;4.456;2023-02-04T12:43:08;12.65;;;6.95;;
25917;SDS011;13899;51.174;4.456;2023-02-04T12:45:33;10.88;;;7.63;;
25917;SDS011;13899;51.174;4.456;2023-02-04T12:48:09;8.98;;;8.05;;
25917;SDS011;13899;51.174;4.456;2023-02-04T12:50:38;8.38;;;7.57;;
25917;SDS011;13899;51.174;4.456;2023-02-04T12:53:07;9.40;;;8.50;;
25917;SDS011;13899;51.174;4.456;2023-02-04T12:55:40;9.30;;;8.40;;
25917;SDS011;13899;51.174;4.456;2023-02-04T12:58:06;9.83;;;8.57;;
25917;SDS011;13899;51.174;4.456;2023-02-04T13:00:34;11.15;;;10.15;;
25917;SDS011;13899;51.174;4.456;2023-02-04T13:03:09;10.17;;;9.27;;
25917;SDS011;13899;51.174;4.456;2023-02-04T13:05:41;19.13;;;10.30;;
25917;SDS011;13899;51.174;4.456;2023-02-04T13:08:46;10.43;;;9.43;;
25917;SDS011;13899;51.174;4.456;2023-02-04T13:11:12;11.82;;;10.65;;
25917;SDS011;13899;51.174;4.456;2023-02-04T13:13:38;10.47;;;9.50;;
25917;SDS011;13899;51.174;4.456;2023-02-04T13:16:05;10.17;;;9.17;;
25917;SDS011;13899;51.174;4.456;2023-02-04T13:18:30;9.85;;;8.93;;
25917;SDS011;13899;51.174;4.456;2023-02-04T13:20:58;11.82;;;9.43;;
25917;SDS011;13899;51.174;4.456;2023-02-04T13:23:41;11.20;;;10.10;;
25917;SDS011;13899;51.174;4.456;2023-02-04T13:26:08;11.00;;;8.15;;
25917;SDS011;13899;51.174;4.456;2023-02-04T13:28:35;9.77;;;7.80;;
25917;SDS011;13899;51.174;4.456;2023-02-04T13:31:08;10.80;;;7.72;;
25917;SDS011;13899;51.174;4.456;2023-02-04T13:33:36;9.90;;;8.05;;
25917;SDS011;13899;51.174;4.456;2023-02-04T13:36:01;13.05;;;8.15;;
25917;SDS011;13899;51.174;4.456;2023-02-04T13:38:27;11.03;;;7.43;;
25917;SDS011;13899;51.174;4.456;2023-02-04T13:40:54;7.22;;;6.53;;
25917;SDS011;13899;51.174;4.456;2023-02-04T13:43:21;6.32;;;5.72;;
25917;SDS011;13899;51.174;4.456;2023-02-04T13:45:52;10.57;;;7.00;;
25917;SDS011;13899;51.174;4.456;2023-02-04T13:48:21;8.68;;;6.10;;
25917;SDS011;13899;51.174;4.456;2023-02-04T13:50:52;8.85;;;6.20;;
25917;SDS011;13899;51.174;4.456;2023-02-04T13:53:30;8.95;;;6.50;;
25917;SDS011;13899;51.174;4.456;2023-02-04T13:56:41;12.80;;;10.57;;
25917;SDS011;13899;51.174;4.456;2023-02-04T13:59:18;10.60;;;7.70;;
25917;SDS011;13899;51.174;4.456;2023-02-04T14:01:44;9.23;;;6.78;;
25917;SDS011;13899;51.174;4.456;2023-02-04T14:04:13;9.10;;;7.30;;
25917;SDS011;13899;51.174;4.456;2023-02-04T14:06:38;10.70;;;7.72;;
25917;SDS011;13899;51.174;4.456;2023-02-04T14:09:07;9.90;;;7.82;;
25917;SDS011;13899;51.174;4.456;2023-02-04T14:11:37;11.73;;;9.30;;
25917;SDS011;13899;51.174;4.456;2023-02-04T14:14:04;10.85;;;8.23;;
25917;SDS011;13899;51.174;4.456;2023-02-04T14:16:36;11.70;;;7.28;;
25917;SDS011;13899;51.174;4.456;2023-02-04T14:19:11;10.18;;;7.70;;
25917;SDS011;13899;51.174;4.456;2023-02-04T14:21:38;8.50;;;6.57;;
25917;SDS011;13899;51.174;4.456;2023-02-04T14:24:07;8.90;;;7.50;;
25917;SDS011;13899;51.174;4.456;2023-02-04T14:27:16;9.13;;;8.20;;
25917;SDS011;13899;51.174;4.456;2023-02-04T14:29:46;13.38;;;8.43;;
25917;SDS011;13899;51.174;4.456;2023-02-04T14:32:14;8.10;;;7.25;;
25917;SDS011;13899;51.174;4.456;2023-02-04T14:34:42;8.88;;;7.32;;
25917;SDS011;13899;51.174;4.456;2023-02-04T14:37:07;11.38;;;7.35;;
25917;SDS011;13899;51.174;4.456;2023-02-04T14:42:01;7.70;;;6.60;;
25917;SDS011;13899;51.174;4.456;2023-02-04T14:44:31;8.57;;;6.70;;
25917;SDS011;13899;51.174;4.456;2023-02-04T14:46:57;7.50;;;6.90;;
25917;SDS011;13899;51.174;4.456;2023-02-04T14:49:27;7.95;;;7.18;;
25917;SDS011;13899;51.174;4.456;2023-02-04T14:51:53;7.50;;;6.80;;